Hovedside
METAR-TAF:

METAR-TAF

Lufthavner :

Harstad/Narvik lufthavn. Evenes

Evenes, Norge

breddegrad: 68-31N, lengdegrad: 016-41E, høyde over havet: 26 m

Gjeldene værobservasjon

Denne rapporten ble laget for 19 minutter siden, klokken 09:50 UTC
Vind 5 kt fra Nord-nordvest, skiftende mellom Vest-nordvest og Nord
Temperatur 15°C
Luftfuktighet 82%
Trykk 1016 hPa
Sikt 10 km eller mer
Få skyer i en høyde av 2000 ft
Brutte skyer i en høyde av 3000 ft

METAR: ENEV 200950Z 34005KT 300V010 9999 FEW020 BKN030 15/12 Q1016 RMK WIND 1400FT 01005KT

Tid: 12:09 (10:09 UTC)

Varsel

Denne rapporten ble laget for 2 timer og 9 minutter siden, klokken 08:00 UTC
Varsel gyldig fra 20. klokken 09 UTC til 20. klokken 18 UTC
Vind 5 kt fra Nord
Sikt 10 km eller mer
Brutte skyer i en høyde av 3000 ft
Sannsynlighet 40%
fra 20. klokken 09 UTC til 20. klokken 18 UTC
Få skyer i en høyde av 2000 ft, Bygeskyer.

TAF: ENEV 200800Z 2009/2018 35005KT 9999 BKN030 PROB40 2009/2018 FEW020CB

Værobservasjoner og værvarsel for over 4000 flyplasser (METAR- og TAF-rapporter).

Tilgjengelige stasjoner er representert av de røde og gule prikkene på kartet.

Hold musepekeren over prikken for å se navnet på stasjonen.

Klikk så for å se værobservasjoner og -varsler.

For å forandre kartet kan du klikke på den grønne knappen med svart kryss for å zoome inn, på den grønne knappen med strek for å zoome ut, eller på de grønne pilene for å se tilstøtende kart.


METAR-TAF: